KHWDKSAC

Guest
Details From KHWD - Hayward Executive
To KSAC - Sacramento Executive
Flight Number -
Tags Routegen
Created
Modified
Stats Distance 59 nm / 109 km
Max Altitude 0 ft / 0 m
Waypoints 2
Social Downloads 12
Likes 0
Share

Download

Looking for another format? Having issues loading an existing format? Contact us
Advertisement - Login to hide

Notes

None

Route

KHWD KSAC

ID Type Via Altitude (ft/m) Position (lat/lon) Dist (leg/tot) Name
O KHWD APT - 0 / 0 37.66204 / -122.12979 - / 0 nm
O KSAC APT - 0 / 0 38.50520 / -121.50073 58 / 58 nm

Altitude Profile

Advertisement - Login to hide

KHWD

Details ICAO KHWD (HWD)
Name Hayward Executive
Region United States
Timezone America/Los_Angeles (UTC-7.0)
Stats Elevation 52 ft / 16 m (AMSL)
Location 37.659300° -122.122000°
Runways 2
Magnetic Variation 13.069° E

METAR

KHWD 251054Z AUTO 34006KT 10SM OVC009 15/13 A2998 RMK AO2 SLP160 T01500128

Decode

TAF

Not found

Departure Runways

ID Width Length Bearing (true/mag) Surface Threshold Overrun Markings Lighting
10L 75 ft / 23 m 3,106 ft / 947 m 119.97° / 106.90° ASPHALT 0 ft / 0 m 0 ft / 0 m VISUAL EDGE THRESHOLD
10R 150 ft / 46 m 5,695 ft / 1,736 m 119.96° / 106.89° ASPHALT 827 ft / 252 m 0 ft / 0 m PREC-APP EDGE THRESHOLD REIL-OMNI
28L 150 ft / 46 m 5,695 ft / 1,736 m 299.97° / 286.90° ASPHALT 676 ft / 206 m 0 ft / 0 m PREC-APP EDGE THRESHOLD REIL-OMNI
28R 75 ft / 23 m 3,106 ft / 947 m 299.97° / 286.90° ASPHALT 0 ft / 0 m 0 ft / 0 m VISUAL EDGE THRESHOLD

KSAC

Details ICAO KSAC (SAC)
Name Sacramento Executive
Region United States
Timezone America/Los_Angeles (UTC-7.0)
Stats Elevation 24 ft / 7 m (AMSL)
Location 38.512600° -121.493000°
Runways 3
Magnetic Variation 13.141° E

METAR

KSAC 251053Z AUTO 18005KT 10SM CLR 16/11 A2991 RMK AO2 SLP129 T01610106

Decode

TAF

KSAC 250535Z 2506/2606 19006KT P6SM SKC FM260000 22009KT P6SM SKC

Decode

Destination Runways

ID Width Length Bearing (true/mag) Surface Threshold Overrun Markings Lighting
02 151 ft / 46 m 5,507 ft / 1,679 m 33.00° / 19.86° ASPHALT 0 ft / 0 m 0 ft / 0 m PREC-APP EDGE THRESHOLD MALSR
12 98 ft / 30 m 3,834 ft / 1,169 m 133.23° / 120.09° ASPHALT 0 ft / 0 m 699 ft / 213 m VISUAL EDGE THRESHOLD REIL-OMNI
16 151 ft / 46 m 3,492 ft / 1,064 m 179.61° / 166.47° ASPHALT 0 ft / 0 m 0 ft / 0 m VISUAL
20 151 ft / 46 m 5,507 ft / 1,679 m 213.01° / 199.87° ASPHALT 0 ft / 0 m 0 ft / 0 m PREC-APP EDGE THRESHOLD REIL-OMNI
30 98 ft / 30 m 3,834 ft / 1,169 m 313.24° / 300.10° ASPHALT 0 ft / 0 m 0 ft / 0 m VISUAL EDGE THRESHOLD REIL-OMNI
34 151 ft / 46 m 3,492 ft / 1,064 m 359.61° / 346.47° ASPHALT 0 ft / 0 m 0 ft / 0 m VISUAL

Approach Navaids

Runway Type Ident Frequency Range Bearing (true/mag) Slope Elevation
02 LOC-ILS ISAC 110.30 MHz 18 nm / 33 km 33.01° / 19.86 ° - 23 ft / 7 m (AMSL)
02 MM MM - - 33.01° / 19.86 ° - 24 ft / 7 m (AMSL)
02 OM OM - - 33.01° / 19.86 ° - 5 ft / 2 m (AMSL)
02 GS ISAC 110.30 MHz 10 nm / 19 km 33.01° / 19.87 ° 3.00° 18 ft / 5 m (AMSL)

Popular Alternatives